CND5997 TNCB-TNCC
Flight info
| Callsign | CND5997 |
|---|---|
| Flight time | 0h 20m |
| Altitude | 12000 |
| Route | CUR1R ODLAP BON1B |
| Aircraft | A359/H-SDE2E3GHIJ3J4J5LM1ORWXY/LB1D1 |
Departure
| Time | 2026-04-29 07:13 |
|---|---|
| Airport | Flamingo International Airport (TNCB) |
Arrival
| Time | 2026-04-29 07:33 |
|---|---|
| Airport | Hato International Airport (TNCC) |
| Time | Latitude | Longitude | Altitude | Speed | Heading |
|---|---|---|---|---|---|
| 2026-04-29 06:53 | 12.13323 | -68.27496 | 34 ft | 0 kts | 2° |
| 2026-04-29 07:04 | 12.13306 | -68.27496 | 32 ft | 4 kts | 350° |
| 2026-04-29 07:05 | 12.13281 | -68.27488 | 30 ft | 4 kts | 324° |
| 2026-04-29 07:05 | 12.13262 | -68.27469 | 32 ft | 4 kts | 300° |
| 2026-04-29 07:05 | 12.13252 | -68.27444 | 32 ft | 4 kts | 282° |
| 2026-04-29 07:05 | 12.13248 | -68.27419 | 34 ft | 1 kts | 272° |
| 2026-04-29 07:06 | 12.13248 | -68.27418 | 34 ft | 0 kts | 272° |
| 2026-04-29 07:08 | 12.13249 | -68.27437 | 34 ft | 5 kts | 272° |
| 2026-04-29 07:09 | 12.13244 | -68.27484 | 34 ft | 7 kts | 244° |
| 2026-04-29 07:09 | 12.13198 | -68.27500 | 34 ft | 8 kts | 181° |
| 2026-04-29 07:09 | 12.13131 | -68.27510 | 34 ft | 11 kts | 207° |
| 2026-04-29 07:09 | 12.13106 | -68.27580 | 34 ft | 12 kts | 270° |
| 2026-04-29 07:10 | 12.13108 | -68.27675 | 35 ft | 15 kts | 271° |
| 2026-04-29 07:10 | 12.13111 | -68.27793 | 34 ft | 18 kts | 271° |
| 2026-04-29 07:10 | 12.13114 | -68.27885 | 33 ft | 21 kts | 272° |
| 2026-04-29 07:10 | 12.13105 | -68.28001 | 33 ft | 12 kts | 244° |
| 2026-04-29 07:11 | 12.13065 | -68.28074 | 34 ft | 10 kts | 244° |
| 2026-04-29 07:11 | 12.13085 | -68.28114 | 34 ft | 6 kts | 355° |
| 2026-04-29 07:11 | 12.13112 | -68.28087 | 34 ft | 6 kts | 63° |
| 2026-04-29 07:11 | 12.13119 | -68.28038 | 32 ft | 4 kts | 90° |
| 2026-04-29 07:12 | 12.13118 | -68.28031 | 34 ft | 0 kts | 91° |
| 2026-04-29 07:12 | 12.13116 | -68.27923 | 33 ft | 48 kts | 92° |
| 2026-04-29 07:12 | 12.13098 | -68.27322 | 34 ft | 119 kts | 91° |
| 2026-04-29 07:12 | 12.13064 | -68.26313 | 351 ft | 149 kts | 92° |
| 2026-04-29 07:13 | 12.13032 | -68.25257 | 1138 ft | 148 kts | 92° |
| 2026-04-29 07:13 | 12.12982 | -68.24172 | 1575 ft | 160 kts | 93° |
| 2026-04-29 07:13 | 12.12908 | -68.22996 | 1923 ft | 172 kts | 95° |
| 2026-04-29 07:13 | 12.12803 | -68.21722 | 2257 ft | 188 kts | 96° |
| 2026-04-29 07:14 | 12.12660 | -68.20338 | 2662 ft | 203 kts | 97° |
| 2026-04-29 07:14 | 12.12479 | -68.18863 | 3102 ft | 216 kts | 98° |
| 2026-04-29 07:14 | 12.12425 | -68.17272 | 3443 ft | 232 kts | 91° |
| 2026-04-29 07:14 | 12.12064 | -68.15637 | 3921 ft | 242 kts | 112° |
| 2026-04-29 07:15 | 12.11032 | -68.14238 | 4451 ft | 255 kts | 138° |
| 2026-04-29 07:15 | 12.09384 | -68.13518 | 5055 ft | 267 kts | 169° |
| 2026-04-29 07:15 | 12.07520 | -68.13816 | 5570 ft | 283 kts | 201° |
| 2026-04-29 07:15 | 12.06024 | -68.15144 | 6112 ft | 294 kts | 235° |
| 2026-04-29 07:16 | 12.05385 | -68.17135 | 6626 ft | 300 kts | 268° |
| 2026-04-29 07:16 | 12.05587 | -68.19247 | 7232 ft | 299 kts | 281° |
| 2026-04-29 07:16 | 12.05906 | -68.21368 | 7748 ft | 305 kts | 278° |
| 2026-04-29 07:16 | 12.06168 | -68.23524 | 8345 ft | 306 kts | 277° |
| 2026-04-29 07:17 | 12.06384 | -68.25687 | 8961 ft | 307 kts | 276° |
| 2026-04-29 07:17 | 12.06577 | -68.27875 | 9505 ft | 311 kts | 275° |
| 2026-04-29 07:17 | 12.06756 | -68.30059 | 9842 ft | 314 kts | 275° |
| 2026-04-29 07:17 | 12.06929 | -68.32284 | 9909 ft | 314 kts | 275° |
| 2026-04-29 07:18 | 12.07098 | -68.34513 | 9916 ft | 315 kts | 275° |
| 2026-04-29 07:18 | 12.07268 | -68.36780 | 9917 ft | 316 kts | 275° |
| 2026-04-29 07:18 | 12.07433 | -68.38989 | 9921 ft | 316 kts | 275° |
| 2026-04-29 07:18 | 12.07598 | -68.41227 | 9926 ft | 316 kts | 275° |
| 2026-04-29 07:19 | 12.07763 | -68.43464 | 9929 ft | 316 kts | 275° |
| 2026-04-29 07:19 | 12.07928 | -68.45693 | 9965 ft | 315 kts | 274° |
| 2026-04-29 07:19 | 12.08092 | -68.47927 | 9965 ft | 315 kts | 275° |
| 2026-04-29 07:19 | 12.08256 | -68.50164 | 9967 ft | 316 kts | 274° |
| 2026-04-29 07:20 | 12.08420 | -68.52397 | 9965 ft | 316 kts | 275° |
| 2026-04-29 07:20 | 12.08585 | -68.54642 | 9967 ft | 317 kts | 274° |
| 2026-04-29 07:20 | 12.08749 | -68.56889 | 9967 ft | 317 kts | 274° |
| 2026-04-29 07:20 | 12.08913 | -68.59132 | 9965 ft | 316 kts | 274° |
| 2026-04-29 07:21 | 12.09077 | -68.61375 | 9965 ft | 316 kts | 274° |
| 2026-04-29 07:21 | 12.09240 | -68.63614 | 9959 ft | 316 kts | 274° |
| 2026-04-29 07:21 | 12.09403 | -68.65853 | 9954 ft | 315 kts | 274° |
| 2026-04-29 07:21 | 12.09566 | -68.68088 | 9952 ft | 317 kts | 274° |
| 2026-04-29 07:22 | 12.09729 | -68.70331 | 9799 ft | 316 kts | 274° |
| 2026-04-29 07:22 | 12.09891 | -68.72570 | 9533 ft | 316 kts | 274° |
| 2026-04-29 07:22 | 12.10054 | -68.74813 | 9279 ft | 316 kts | 274° |
| 2026-04-29 07:22 | 12.10215 | -68.77042 | 9029 ft | 313 kts | 274° |
| 2026-04-29 07:23 | 12.10375 | -68.79253 | 8770 ft | 312 kts | 274° |
| 2026-04-29 07:23 | 12.10535 | -68.81461 | 8520 ft | 311 kts | 274° |
| 2026-04-29 07:23 | 12.10693 | -68.83657 | 8257 ft | 309 kts | 274° |
| 2026-04-29 07:23 | 12.10851 | -68.85848 | 8039 ft | 309 kts | 274° |
| 2026-04-29 07:24 | 12.11009 | -68.88035 | 7793 ft | 308 kts | 274° |
| 2026-04-29 07:24 | 12.11165 | -68.90210 | 7576 ft | 303 kts | 274° |
| 2026-04-29 07:24 | 12.11319 | -68.92357 | 7379 ft | 304 kts | 274° |
| 2026-04-29 07:24 | 12.11475 | -68.94517 | 7064 ft | 305 kts | 274° |
| 2026-04-29 07:25 | 12.11630 | -68.96678 | 6719 ft | 304 kts | 274° |
| 2026-04-29 07:25 | 12.11784 | -68.98826 | 6375 ft | 303 kts | 274° |
| 2026-04-29 07:25 | 12.11937 | -69.00963 | 6017 ft | 301 kts | 274° |
| 2026-04-29 07:25 | 12.12089 | -69.03090 | 5679 ft | 299 kts | 274° |
| 2026-04-29 07:26 | 12.12240 | -69.05203 | 5342 ft | 298 kts | 274° |
| 2026-04-29 07:26 | 12.12390 | -69.07311 | 5005 ft | 297 kts | 274° |
| 2026-04-29 07:26 | 12.12538 | -69.09385 | 4676 ft | 296 kts | 274° |
| 2026-04-29 07:26 | 12.12687 | -69.11474 | 4337 ft | 294 kts | 274° |
| 2026-04-29 07:27 | 12.12880 | -69.13545 | 4016 ft | 291 kts | 281° |
| 2026-04-29 07:27 | 12.13669 | -69.15408 | 3729 ft | 286 kts | 312° |
| 2026-04-29 07:27 | 12.15245 | -69.16552 | 3485 ft | 275 kts | 346° |
| 2026-04-29 07:27 | 12.17063 | -69.16664 | 3339 ft | 254 kts | 16° |
| 2026-04-29 07:28 | 12.18725 | -69.16235 | 3180 ft | 240 kts | 21° |
| 2026-04-29 07:28 | 12.20292 | -69.15783 | 3026 ft | 227 kts | 24° |
| 2026-04-29 07:28 | 12.21566 | -69.14999 | 2893 ft | 202 kts | 56° |
| 2026-04-29 07:28 | 12.22104 | -69.13776 | 2866 ft | 180 kts | 79° |
| 2026-04-29 07:29 | 12.22239 | -69.12568 | 2846 ft | 164 kts | 88° |
| 2026-04-29 07:29 | 12.22103 | -69.11424 | 2830 ft | 162 kts | 103° |
| 2026-04-29 07:29 | 12.21872 | -69.10297 | 2692 ft | 161 kts | 98° |
| 2026-04-29 07:29 | 12.21670 | -69.09192 | 2457 ft | 155 kts | 102° |
| 2026-04-29 07:30 | 12.21441 | -69.08136 | 2263 ft | 148 kts | 101° |
| 2026-04-29 07:30 | 12.21230 | -69.07128 | 2056 ft | 141 kts | 100° |
| 2026-04-29 07:30 | 12.21026 | -69.06140 | 1882 ft | 144 kts | 101° |
| 2026-04-29 07:31 | 12.20601 | -69.04111 | 1483 ft | 146 kts | 103° |
| 2026-04-29 07:31 | 12.20384 | -69.03098 | 1312 ft | 145 kts | 104° |
| 2026-04-29 07:31 | 12.20169 | -69.02114 | 1121 ft | 140 kts | 102° |
| 2026-04-29 07:31 | 12.19969 | -69.01124 | 957 ft | 143 kts | 103° |
| 2026-04-29 07:32 | 12.19759 | -69.00132 | 761 ft | 143 kts | 102° |
| 2026-04-29 07:32 | 12.19542 | -68.99130 | 565 ft | 146 kts | 101° |
| 2026-04-29 07:32 | 12.19336 | -68.98111 | 368 ft | 147 kts | 100° |
| 2026-04-29 07:32 | 12.19132 | -68.97079 | 157 ft | 149 kts | 103° |
| 2026-04-29 07:33 | 12.18905 | -68.96052 | 61 ft | 143 kts | 101° |
| 2026-04-29 07:33 | 12.18711 | -68.95130 | 46 ft | 115 kts | 101° |
| 2026-04-29 07:33 | 12.18597 | -68.94590 | 53 ft | 32 kts | 102° |
| 2026-04-29 07:33 | 12.18547 | -68.94474 | 49 ft | 14 kts | 146° |
| 2026-04-29 07:34 | 12.18449 | -68.94487 | 46 ft | 15 kts | 205° |
| 2026-04-29 07:34 | 12.18416 | -68.94571 | 50 ft | 15 kts | 276° |
| 2026-04-29 07:34 | 12.18443 | -68.94697 | 47 ft | 20 kts | 282° |
| 2026-04-29 07:34 | 12.18475 | -68.94850 | 47 ft | 24 kts | 282° |
| 2026-04-29 07:35 | 12.18512 | -68.95026 | 46 ft | 27 kts | 282° |
| 2026-04-29 07:35 | 12.18552 | -68.95221 | 44 ft | 29 kts | 282° |
| 2026-04-29 07:35 | 12.18597 | -68.95431 | 47 ft | 27 kts | 282° |
| 2026-04-29 07:35 | 12.18621 | -68.95545 | 46 ft | 10 kts | 282° |
| 2026-04-29 07:36 | 12.18626 | -68.95586 | 44 ft | 5 kts | 265° |
| 2026-04-29 07:36 | 12.18601 | -68.95614 | 47 ft | 6 kts | 209° |
| 2026-04-29 07:36 | 12.18567 | -68.95624 | 46 ft | 4 kts | 193° |
| 2026-04-29 07:36 | 12.18552 | -68.95628 | 44 ft | 1 kts | 193° |
| 2026-04-29 07:37 | 12.18549 | -68.95629 | 45 ft | 0 kts | 194° |
| 2026-04-29 07:37 | 12.18545 | -68.95630 | 45 ft | 0 kts | 194° |